createdAt,value
2022-08-05T00:01:36.135Z,6.49
2022-08-05T00:04:19.583Z,6.79
2022-08-05T00:06:51.953Z,6.80
2022-08-05T00:09:20.320Z,6.56
2022-08-05T00:11:55.769Z,6.42
2022-08-05T00:14:29.263Z,6.29
2022-08-05T00:17:01.862Z,6.42
2022-08-05T00:19:33.410Z,6.13
2022-08-05T00:22:11.092Z,6.54
2022-08-05T00:24:42.604Z,6.68
2022-08-05T00:27:16.500Z,6.11
2022-08-05T00:29:45.684Z,6.81
2022-08-05T00:32:15.449Z,6.56
2022-08-05T00:35:03.606Z,6.52
2022-08-05T00:37:51.115Z,6.68
2022-08-05T00:40:27.526Z,6.76
2022-08-05T00:42:58.857Z,6.69
2022-08-05T00:45:38.136Z,6.81
2022-08-05T00:48:09.513Z,6.66
2022-08-05T00:50:41.193Z,6.49
2022-08-05T00:54:00.206Z,6.38
2022-08-05T00:55:58.118Z,6.81
2022-08-05T00:58:27.409Z,6.68
2022-08-05T01:00:56.362Z,6.48
2022-08-05T01:03:31.096Z,6.70
2022-08-05T01:06:01.591Z,6.69
2022-08-05T01:08:42.951Z,7.10
2022-08-05T01:11:22.222Z,6.86
2022-08-05T01:14:28.445Z,7.01
2022-08-05T01:17:10.274Z,6.77
2022-08-05T01:20:10.376Z,6.63
2022-08-05T01:23:23.682Z,6.97
2022-08-05T01:26:26.716Z,6.76
2022-08-05T01:29:05.049Z,6.47
2022-08-05T01:31:45.135Z,6.88
2022-08-05T01:34:22.523Z,6.68
2022-08-05T01:37:27.374Z,6.63
2022-08-05T01:39:58.751Z,6.56
2022-08-05T01:42:29.731Z,6.80
2022-08-05T01:44:59.913Z,7.20
2022-08-05T01:47:39.247Z,6.97
2022-08-05T01:50:30.972Z,6.87
2022-08-05T01:53:02.588Z,7.15
2022-08-05T01:55:36.294Z,6.95
2022-08-05T01:58:11.341Z,6.68
2022-08-05T02:00:59.099Z,6.70
2022-08-05T02:03:34.485Z,7.09
2022-08-05T02:06:33.407Z,6.48
2022-08-05T02:08:55.189Z,6.53
2022-08-05T02:11:55.789Z,6.61
2022-08-05T02:14:53.165Z,6.81
2022-08-05T02:18:27.781Z,6.63
2022-08-05T02:20:23.751Z,6.81
2022-08-05T02:23:01.604Z,6.96
2022-08-05T02:25:35.955Z,6.75
2022-08-05T02:28:32.175Z,6.73
2022-08-05T02:31:13.844Z,6.51
2022-08-05T02:33:57.802Z,6.58
2022-08-05T02:36:31.203Z,6.94
2022-08-05T02:39:03.679Z,6.47
2022-08-05T02:41:57.836Z,6.87
2022-08-05T02:44:30.046Z,6.75
2022-08-05T02:47:00.845Z,6.57
2022-08-05T02:49:37.937Z,6.87
2022-08-05T02:52:29.488Z,6.66
2022-08-05T02:55:05.362Z,6.68
2022-08-05T02:58:11.605Z,6.99
2022-08-05T03:00:25.379Z,6.75
2022-08-05T03:02:57.595Z,6.76
2022-08-05T03:06:54.921Z,7.01
2022-08-05T03:08:16.585Z,6.84
2022-08-05T03:11:41.114Z,6.99
2022-08-05T03:13:50.992Z,6.67
2022-08-05T03:16:23.481Z,7.13
2022-08-05T03:18:52.162Z,7.50
2022-08-05T03:21:20.151Z,9.01
2022-08-05T03:23:50.252Z,7.72
2022-08-05T03:26:31.500Z,7.64
2022-08-05T03:29:00.693Z,7.17
2022-08-05T03:31:57.173Z,7.44
2022-08-05T03:34:19.104Z,8.81
2022-08-05T03:36:47.085Z,7.59
2022-08-05T03:39:20.116Z,7.45
2022-08-05T03:41:56.580Z,7.35
2022-08-05T03:44:25.674Z,7.63
2022-08-05T03:46:57.261Z,7.36
2022-08-05T03:49:30.967Z,7.64
2022-08-05T03:52:37.067Z,7.42
2022-08-05T03:56:05.199Z,7.42
2022-08-05T03:58:12.901Z,7.13
2022-08-05T04:00:44.265Z,7.20
2022-08-05T04:03:28.376Z,7.13
2022-08-05T04:05:59.239Z,7.55
2022-08-05T04:08:34.869Z,7.50
2022-08-05T04:11:08.593Z,7.23
2022-08-05T04:13:50.975Z,7.33
2022-08-05T04:16:24.890Z,7.55
2022-08-05T04:18:54.905Z,7.55
2022-08-05T04:22:10.007Z,7.47
2022-08-05T04:24:18.915Z,7.55
2022-08-05T04:26:47.757Z,7.30
2022-08-05T04:29:15.655Z,7.34
2022-08-05T04:31:43.685Z,7.74
2022-08-05T04:34:31.369Z,7.62
2022-08-05T04:36:59.798Z,7.30
2022-08-05T04:39:28.882Z,7.51
2022-08-05T04:41:57.603Z,7.19
2022-08-05T04:44:29.308Z,7.69
2022-08-05T04:46:59.800Z,7.53
2022-08-05T04:50:01.138Z,7.71
2022-08-05T04:52:27.368Z,7.52
2022-08-05T04:54:57.294Z,7.74
2022-08-05T04:57:28.747Z,7.12
2022-08-05T04:59:58.608Z,7.60
2022-08-05T05:02:36.379Z,7.76
2022-08-05T05:05:26.074Z,7.45
2022-08-05T05:08:01.627Z,7.43
2022-08-05T05:10:47.279Z,7.83
2022-08-05T05:13:23.972Z,7.63
2022-08-05T05:15:56.371Z,7.64
2022-08-05T05:18:31.329Z,7.79
2022-08-05T05:21:03.577Z,7.56
2022-08-05T05:23:39.119Z,8.10
2022-08-05T05:26:28.444Z,8.06
2022-08-05T05:29:02.319Z,8.02
2022-08-05T05:34:01.931Z,8.41
2022-08-05T05:36:31.695Z,8.37
2022-08-05T05:39:00.261Z,8.93
2022-08-05T05:41:40.786Z,9.50
2022-08-05T05:44:35.715Z,8.82
2022-08-05T05:47:04.653Z,9.39
2022-08-05T05:49:46.657Z,9.87
2022-08-05T05:52:29.948Z,10.45
2022-08-05T05:55:02.254Z,10.29
2022-08-05T05:57:43.042Z,9.22
2022-08-05T06:00:27.829Z,10.08
2022-08-05T06:03:03.322Z,10.92
2022-08-05T06:05:54.100Z,10.86
2022-08-05T06:08:31.805Z,10.65
2022-08-05T06:11:01.475Z,10.36
2022-08-05T06:13:29.566Z,14.75
2022-08-05T06:16:29.865Z,12.31
2022-08-05T06:18:56.818Z,12.43
2022-08-05T06:21:37.088Z,11.39
2022-08-05T06:24:11.506Z,11.27
2022-08-05T06:26:51.364Z,11.59
2022-08-05T06:29:46.697Z,12.42
2022-08-05T06:32:26.434Z,12.37
2022-08-05T06:35:05.773Z,12.77
2022-08-05T06:37:58.310Z,13.41
2022-08-05T06:40:22.113Z,13.50
2022-08-05T06:42:56.048Z,16.47
2022-08-05T06:45:44.579Z,15.53
2022-08-05T06:48:53.027Z,14.38
2022-08-05T06:51:00.353Z,13.30
2022-08-05T06:53:29.153Z,13.43
2022-08-05T06:55:58.942Z,14.05
2022-08-05T06:58:35.504Z,15.33
2022-08-05T07:01:06.587Z,14.98
2022-08-05T07:03:35.115Z,14.68
2022-08-05T07:06:06.284Z,14.49
2022-08-05T07:08:47.649Z,14.00
2022-08-05T07:11:22.427Z,15.30
2022-08-05T07:14:20.001Z,13.85
2022-08-05T07:18:00.541Z,14.02
2022-08-05T07:20:31.203Z,13.97
2022-08-05T07:22:39.587Z,14.36
2022-08-05T07:25:23.258Z,15.00
2022-08-05T07:28:05.871Z,14.80
2022-08-05T07:30:38.361Z,14.23
2022-08-05T07:33:16.180Z,13.17
2022-08-05T07:36:04.910Z,13.16
2022-08-05T07:38:43.712Z,13.06
2022-08-05T07:42:08.969Z,13.03
2022-08-05T07:44:14.215Z,12.30
2022-08-05T07:46:50.014Z,13.13
2022-08-05T07:49:19.513Z,13.50
2022-08-05T07:51:53.290Z,12.37
2022-08-05T07:54:30.924Z,11.81
2022-08-05T07:57:22.456Z,11.60
2022-08-05T07:59:53.702Z,12.26
2022-08-05T08:02:31.171Z,11.64
2022-08-05T08:05:14.506Z,12.27
2022-08-05T08:07:59.119Z,13.56
2022-08-05T08:10:29.380Z,12.69
2022-08-05T08:12:58.969Z,12.50
2022-08-05T08:15:37.455Z,13.28
2022-08-05T08:18:15.070Z,15.84
2022-08-05T08:21:01.950Z,15.72
2022-08-05T08:24:01.192Z,14.69
2022-08-05T08:26:29.273Z,13.81
2022-08-05T08:29:22.295Z,13.55
2022-08-05T08:31:50.295Z,17.31
2022-08-05T08:34:30.228Z,13.96
2022-08-05T08:37:03.266Z,12.09
2022-08-05T08:39:37.430Z,11.80
2022-08-05T08:42:32.391Z,11.71
2022-08-05T08:45:24.689Z,23.52
2022-08-05T08:48:06.964Z,27.07
2022-08-05T08:51:03.438Z,14.31
2022-08-05T08:53:37.864Z,11.55
2022-08-05T08:56:12.635Z,11.71
2022-08-05T08:58:44.418Z,12.36
2022-08-05T09:01:18.308Z,20.99
2022-08-05T09:03:52.863Z,12.32
2022-08-05T09:06:31.059Z,37.67
2022-08-05T09:09:01.794Z,31.86
2022-08-05T09:11:52.889Z,13.95
2022-08-05T09:14:57.029Z,38.18
2022-08-05T09:17:15.858Z,15.02
2022-08-05T09:20:05.243Z,19.47
2022-08-05T09:23:05.137Z,17.51
2022-08-05T09:26:01.457Z,11.05
2022-08-05T09:28:32.205Z,11.05
2022-08-05T09:31:43.269Z,10.79
2022-08-05T09:34:05.355Z,15.22
2022-08-05T09:36:54.593Z,21.28
2022-08-05T09:39:41.187Z,14.29
2022-08-05T09:42:22.968Z,13.28
2022-08-05T09:44:56.798Z,23.18
2022-08-05T09:47:36.406Z,21.57
2022-08-05T09:50:37.955Z,23.08
2022-08-05T09:53:09.123Z,20.84
2022-08-05T09:55:58.579Z,18.91
2022-08-05T09:58:29.352Z,11.95
2022-08-05T10:00:58.950Z,17.73
2022-08-05T10:03:56.658Z,10.93
2022-08-05T10:06:19.659Z,12.00
2022-08-05T10:08:53.719Z,17.37
2022-08-05T10:11:22.931Z,14.37
2022-08-05T10:13:54.793Z,11.54
2022-08-05T10:16:28.998Z,9.03
2022-08-05T10:18:58.466Z,8.68
2022-08-05T10:21:27.533Z,9.38
2022-08-05T10:24:07.565Z,8.54
2022-08-05T10:26:51.440Z,9.51
2022-08-05T10:30:05.744Z,13.86
2022-08-05T10:32:54.222Z,17.95
2022-08-05T10:35:00.796Z,32.02
2022-08-05T10:37:37.212Z,23.48
2022-08-05T10:40:36.051Z,19.65
2022-08-05T10:43:35.747Z,19.85
2022-08-05T10:46:07.405Z,26.94
2022-08-05T10:48:56.814Z,12.62
2022-08-05T10:51:28.818Z,12.31
2022-08-05T10:54:02.032Z,13.92
2022-08-05T10:56:58.467Z,8.08
2022-08-05T11:00:02.697Z,9.57
2022-08-05T11:02:34.784Z,12.23
2022-08-05T11:05:10.552Z,9.22
2022-08-05T11:08:01.830Z,8.21
2022-08-05T11:10:37.257Z,8.17
2022-08-05T11:13:06.861Z,7.53
2022-08-05T11:16:00.346Z,7.63
2022-08-05T11:18:32.643Z,7.22
2022-08-05T11:21:11.705Z,7.33
2022-08-05T11:24:04.075Z,7.43
2022-08-05T11:26:43.496Z,7.33
2022-08-05T11:29:49.960Z,7.57
2022-08-05T11:32:27.413Z,7.19
2022-08-05T11:34:57.282Z,7.17
2022-08-05T11:38:28.239Z,7.42
2022-08-05T11:41:15.429Z,9.12
2022-08-05T11:44:40.506Z,9.86
2022-08-05T11:47:11.747Z,8.32
2022-08-05T11:49:50.986Z,7.90
2022-08-05T11:52:29.405Z,7.10
2022-08-05T11:54:59.380Z,7.80
2022-08-05T11:58:08.504Z,8.67
2022-08-05T12:00:31.666Z,8.79
2022-08-05T12:03:28.842Z,8.65
2022-08-05T12:06:03.283Z,9.28
2022-08-05T12:08:51.303Z,9.03
2022-08-05T12:11:20.745Z,9.65
2022-08-05T12:14:04.354Z,8.47
2022-08-05T12:16:38.355Z,7.67
2022-08-05T12:19:11.009Z,7.90
2022-08-05T12:21:58.912Z,7.50
2022-08-05T12:24:29.976Z,7.37
2022-08-05T12:26:58.081Z,7.63
2022-08-05T12:29:27.828Z,7.65
2022-08-05T12:32:07.608Z,7.99
2022-08-05T12:34:38.482Z,7.26
2022-08-05T12:37:16.917Z,7.35
2022-08-05T12:39:51.261Z,7.28
2022-08-05T12:42:21.070Z,7.57
2022-08-05T12:44:49.702Z,7.49
2022-08-05T12:47:30.553Z,7.22
2022-08-05T12:50:03.594Z,7.19
2022-08-05T12:52:39.380Z,7.57
2022-08-05T12:55:22.637Z,7.50
2022-08-05T12:58:38.393Z,7.99
2022-08-05T13:01:59.784Z,7.97
2022-08-05T13:03:42.350Z,7.40
2022-08-05T13:06:18.238Z,7.49
2022-08-05T13:08:52.198Z,7.35
2022-08-05T13:12:01.326Z,6.96
2022-08-05T13:14:35.964Z,7.56
2022-08-05T13:17:31.547Z,7.42
2022-08-05T13:20:23.207Z,7.12
2022-08-05T13:22:53.258Z,7.40
2022-08-05T13:25:22.046Z,6.78
2022-08-05T13:28:10.601Z,7.01
2022-08-05T13:30:38.987Z,6.41
2022-08-05T13:33:07.508Z,6.09
2022-08-05T13:35:47.578Z,6.34
2022-08-05T13:38:30.282Z,6.05
2022-08-05T13:41:00.107Z,6.05
2022-08-05T13:43:44.247Z,5.74
2022-08-05T13:46:30.778Z,6.04
2022-08-05T13:49:10.077Z,5.96
2022-08-05T13:51:46.035Z,6.07
2022-08-05T13:54:16.655Z,6.15
2022-08-05T13:56:50.672Z,5.95
2022-08-05T13:59:24.375Z,5.61
2022-08-05T14:02:00.083Z,5.79
2022-08-05T14:04:50.788Z,6.12
2022-08-05T14:07:57.041Z,5.96
2022-08-05T14:10:19.270Z,5.84
2022-08-05T14:12:57.470Z,5.94
2022-08-05T14:16:04.903Z,6.28
2022-08-05T14:18:17.500Z,6.09
2022-08-05T14:20:48.123Z,6.44
2022-08-05T14:23:19.074Z,6.32
2022-08-05T14:25:58.523Z,5.89
2022-08-05T14:28:28.711Z,6.07
2022-08-05T14:31:00.494Z,6.62
2022-08-05T14:33:32.525Z,5.95
2022-08-05T14:36:20.645Z,6.31
2022-08-05T14:38:50.978Z,6.03
2022-08-05T14:41:19.054Z,6.14
2022-08-05T14:43:59.215Z,6.00
2022-08-05T14:46:35.123Z,5.36
2022-08-05T14:49:07.285Z,5.72
2022-08-05T14:51:38.350Z,5.65
2022-08-05T14:54:28.207Z,5.87
2022-08-05T14:56:56.642Z,5.42
2022-08-05T14:59:25.120Z,6.19
2022-08-05T15:01:58.372Z,6.03
2022-08-05T15:04:29.377Z,5.45
2022-08-05T15:06:57.509Z,5.95
2022-08-05T15:09:52.429Z,5.74
2022-08-05T15:12:16.433Z,6.06
2022-08-05T15:14:50.289Z,6.04
2022-08-05T15:17:46.721Z,5.89
2022-08-05T15:20:18.944Z,5.98
2022-08-05T15:22:55.144Z,6.01
2022-08-05T15:25:40.899Z,5.63
2022-08-05T15:28:15.533Z,5.91
2022-08-05T15:30:46.265Z,6.06
2022-08-05T15:34:04.564Z,5.72
2022-08-05T15:36:05.607Z,5.95
2022-08-05T15:38:48.112Z,5.93
2022-08-05T15:41:23.121Z,6.05
2022-08-05T15:43:54.512Z,6.11
2022-08-05T15:46:24.058Z,6.44
2022-08-05T15:49:01.034Z,6.34
2022-08-05T15:52:04.345Z,6.57
2022-08-05T15:54:34.511Z,6.54
2022-08-05T15:57:07.556Z,9.59
2022-08-05T15:59:36.481Z,10.02
2022-08-05T16:02:14.483Z,43.38
2022-08-05T16:04:55.523Z,25.83
2022-08-05T16:07:23.459Z,8.03
2022-08-05T16:09:51.873Z,7.53
2022-08-05T16:12:22.395Z,19.49
2022-08-05T16:14:51.670Z,21.59
2022-08-05T16:17:19.661Z,26.48
2022-08-05T16:20:04.421Z,42.94
2022-08-05T16:22:35.685Z,9.55
2022-08-05T16:25:08.146Z,31.47
2022-08-05T16:28:00.453Z,11.95
2022-08-05T16:30:28.721Z,20.17
2022-08-05T16:32:58.322Z,44.57
2022-08-05T16:35:28.426Z,69.65
2022-08-05T16:38:15.778Z,60.00
2022-08-05T16:40:55.730Z,91.77
2022-08-05T16:43:31.260Z,104.42
2022-08-05T16:46:05.303Z,67.86
2022-08-05T16:48:40.619Z,51.76
2022-08-05T16:51:09.636Z,22.40
2022-08-05T16:54:05.302Z,21.60
2022-08-05T16:56:30.401Z,23.94
2022-08-05T16:58:58.508Z,22.50
2022-08-05T17:01:27.020Z,17.02
2022-08-05T17:04:15.075Z,14.90
2022-08-05T17:06:43.202Z,13.55
2022-08-05T17:09:21.557Z,13.11
2022-08-05T17:11:55.951Z,14.44
2022-08-05T17:14:37.515Z,27.26
2022-08-05T17:17:14.311Z,27.26
2022-08-05T17:19:45.636Z,33.14
2022-08-05T17:22:25.022Z,24.41
2022-08-05T17:24:57.651Z,25.13
2022-08-05T17:27:33.599Z,11.28
2022-08-05T17:30:12.247Z,14.21
2022-08-05T17:32:53.797Z,39.42
2022-08-05T17:35:22.134Z,45.24
2022-08-05T17:37:50.603Z,42.28
2022-08-05T17:40:22.458Z,10.99
2022-08-05T17:42:53.120Z,12.25
2022-08-05T17:45:24.816Z,8.03
2022-08-05T17:47:56.109Z,7.70
2022-08-05T17:50:29.958Z,7.90
2022-08-05T17:53:04.710Z,8.05
2022-08-05T17:55:38.311Z,7.96
2022-08-05T17:58:12.616Z,7.76
2022-08-05T18:00:47.775Z,7.66
2022-08-05T18:03:56.071Z,7.59
2022-08-05T18:06:12.170Z,7.54
2022-08-05T18:08:45.746Z,7.99
2022-08-05T18:11:24.368Z,8.81
2022-08-05T18:14:03.225Z,9.40
2022-08-05T18:16:51.394Z,10.55
2022-08-05T18:19:23.335Z,11.01
2022-08-05T18:22:08.892Z,9.45
2022-08-05T18:24:39.904Z,9.84
2022-08-05T18:27:12.518Z,20.42
2022-08-05T18:29:41.536Z,14.99
2022-08-05T18:32:13.057Z,10.65
2022-08-05T18:34:41.553Z,8.55
2022-08-05T18:37:12.280Z,8.22
2022-08-05T18:40:29.822Z,7.46
2022-08-05T18:42:28.954Z,7.82
2022-08-05T18:44:57.096Z,7.85
2022-08-05T18:47:26.348Z,7.62
2022-08-05T18:50:15.419Z,8.48
2022-08-05T18:52:50.913Z,10.87
2022-08-05T18:55:21.524Z,9.03
2022-08-05T18:57:54.084Z,8.71
2022-08-05T19:00:30.995Z,10.64
2022-08-05T19:03:03.886Z,10.43
2022-08-05T19:06:11.985Z,8.25
2022-08-05T19:08:30.453Z,9.17
2022-08-05T19:11:04.571Z,14.11
2022-08-05T19:13:36.189Z,14.16
2022-08-05T19:16:24.287Z,10.10
2022-08-05T19:18:56.626Z,8.42
2022-08-05T19:21:29.391Z,8.29
2022-08-05T19:24:05.320Z,8.25
2022-08-05T19:26:43.791Z,8.64
2022-08-05T19:29:24.098Z,7.80
2022-08-05T19:31:56.074Z,7.68
2022-08-05T19:34:25.616Z,7.97
2022-08-05T19:36:53.822Z,8.55
2022-08-05T19:39:21.816Z,8.00
2022-08-05T19:42:05.622Z,7.91
2022-08-05T19:44:44.512Z,7.62
2022-08-05T19:47:16.337Z,7.82
2022-08-05T19:49:46.137Z,7.70
2022-08-05T19:52:40.522Z,8.01
2022-08-05T19:55:07.063Z,7.95
2022-08-05T19:58:07.146Z,7.91
2022-08-05T20:00:39.840Z,7.61
2022-08-05T20:03:09.093Z,7.22
2022-08-05T20:05:43.370Z,7.62
2022-08-05T20:08:19.677Z,7.11
2022-08-05T20:10:49.636Z,6.67
2022-08-05T20:13:18.440Z,6.88
2022-08-05T20:15:58.448Z,7.96
2022-08-05T20:18:33.173Z,7.31
2022-08-05T20:21:05.140Z,7.01
2022-08-05T20:23:39.585Z,7.92
2022-08-05T20:26:26.815Z,8.09
2022-08-05T20:28:56.999Z,7.31
2022-08-05T20:31:36.902Z,6.82
2022-08-05T20:34:12.319Z,6.84
2022-08-05T20:36:43.295Z,6.84
2022-08-05T20:39:16.123Z,6.84
2022-08-05T20:41:47.917Z,6.76
2022-08-05T20:44:30.178Z,6.63
2022-08-05T20:47:01.133Z,6.54
2022-08-05T20:49:29.177Z,6.27
2022-08-05T20:51:58.036Z,6.26
2022-08-05T20:54:42.859Z,6.16
2022-08-05T20:57:41.822Z,6.48
2022-08-05T21:00:19.891Z,6.19
2022-08-05T21:02:54.551Z,6.12
2022-08-05T21:05:25.157Z,6.72
2022-08-05T21:07:53.242Z,6.32
2022-08-05T21:10:21.569Z,6.56
2022-08-05T21:13:08.297Z,6.63
2022-08-05T21:15:37.864Z,6.33
2022-08-05T21:18:05.888Z,6.63
2022-08-05T21:20:35.206Z,7.40
2022-08-05T21:23:03.715Z,9.52
2022-08-05T21:25:34.362Z,7.63
2022-08-05T21:28:03.349Z,6.29
2022-08-05T21:30:31.708Z,6.23
2022-08-05T21:33:01.999Z,5.97
2022-08-05T21:35:55.353Z,6.28
2022-08-05T21:38:19.281Z,5.91
2022-08-05T21:40:47.188Z,6.00
2022-08-05T21:43:24.154Z,6.36
2022-08-05T21:45:57.736Z,6.83
2022-08-05T21:48:29.074Z,6.75
2022-08-05T21:50:59.852Z,6.16
2022-08-05T21:53:28.084Z,6.30
2022-08-05T21:56:05.781Z,5.98
2022-08-05T21:58:42.325Z,6.43
2022-08-05T22:01:24.175Z,6.39
2022-08-05T22:03:53.855Z,6.56
2022-08-05T22:06:39.614Z,6.40
2022-08-05T22:09:13.984Z,6.28
2022-08-05T22:11:46.845Z,5.96
2022-08-05T22:14:37.195Z,6.21
2022-08-05T22:17:06.547Z,6.49
2022-08-05T22:20:00.644Z,6.45
2022-08-05T22:22:28.233Z,5.79
2022-08-05T22:25:21.263Z,6.01
2022-08-05T22:28:09.781Z,6.10
2022-08-05T22:30:55.818Z,5.40
2022-08-05T22:33:57.662Z,5.86
2022-08-05T22:36:16.904Z,6.30
2022-08-05T22:38:47.964Z,5.87
2022-08-05T22:42:04.462Z,5.73
2022-08-05T22:44:08.118Z,5.59
2022-08-05T22:46:40.236Z,5.86
2022-08-05T22:49:46.113Z,5.38
2022-08-05T22:52:05.773Z,5.41
2022-08-05T22:54:36.397Z,5.36
2022-08-05T22:57:05.635Z,5.47
2022-08-05T22:59:46.567Z,5.33
2022-08-05T23:02:29.642Z,5.83
2022-08-05T23:05:01.951Z,5.43
2022-08-05T23:07:44.813Z,5.67
2022-08-05T23:10:20.008Z,5.42
2022-08-05T23:12:51.304Z,5.29
2022-08-05T23:15:29.410Z,5.39
2022-08-05T23:18:03.297Z,5.11
2022-08-05T23:20:37.358Z,4.68
2022-08-05T23:23:08.176Z,4.63
2022-08-05T23:25:51.132Z,4.55
2022-08-05T23:28:28.594Z,4.47
2022-08-05T23:31:16.580Z,4.43
2022-08-05T23:34:05.106Z,4.16
2022-08-05T23:36:40.112Z,4.09
2022-08-05T23:39:32.263Z,4.04
2022-08-05T23:42:08.600Z,4.35
2022-08-05T23:44:42.577Z,4.09
2022-08-05T23:47:14.504Z,4.03
2022-08-05T23:49:46.660Z,4.03
2022-08-05T23:52:27.441Z,4.11
2022-08-05T23:54:58.351Z,4.01
2022-08-05T23:57:28.051Z,4.12
